createdAt,value
2022-09-24T00:01:35.053Z,93.12
2022-09-24T00:04:11.931Z,93.07
2022-09-24T00:06:44.085Z,93.01
2022-09-24T00:09:16.846Z,93.08
2022-09-24T00:11:46.007Z,93.06
2022-09-24T00:14:15.713Z,92.93
2022-09-24T00:16:45.990Z,92.89
2022-09-24T00:19:15.563Z,92.86
2022-09-24T00:21:44.994Z,92.96
2022-09-24T00:24:18.525Z,92.86
2022-09-24T00:26:50.798Z,92.72
2022-09-24T00:29:23.712Z,92.61
2022-09-24T00:31:53.768Z,92.42
2022-09-24T00:34:23.104Z,92.38
2022-09-24T00:36:54.450Z,92.35
2022-09-24T00:39:24.473Z,92.26
2022-09-24T00:41:54.156Z,92.07
2022-09-24T00:44:50.665Z,92.06
2022-09-24T00:47:39.363Z,92.13
2022-09-24T00:50:22.291Z,92.28
2022-09-24T00:53:11.962Z,92.34
2022-09-24T00:55:42.257Z,92.25
2022-09-24T00:58:11.181Z,92.04
2022-09-24T01:00:40.367Z,92.01
2022-09-24T01:03:13.945Z,92.05
2022-09-24T01:05:43.695Z,92.15
2022-09-24T01:08:15.478Z,92.07
2022-09-24T01:11:19.189Z,92.00
2022-09-24T01:14:02.143Z,92.12
2022-09-24T01:16:49.503Z,92.15
2022-09-24T01:19:45.100Z,92.15
2022-09-24T01:22:54.313Z,91.94
2022-09-24T01:25:46.658Z,91.86
2022-09-24T01:28:55.600Z,91.98
2022-09-24T01:31:35.233Z,91.93
2022-09-24T01:34:07.406Z,91.84
2022-09-24T01:36:36.717Z,91.80
2022-09-24T01:39:05.565Z,91.82
2022-09-24T01:41:37.137Z,91.87
2022-09-24T01:44:07.716Z,91.77
2022-09-24T01:46:39.772Z,91.84
2022-09-24T01:49:08.712Z,91.93
2022-09-24T01:51:44.156Z,92.05
2022-09-24T01:54:23.604Z,92.15
2022-09-24T01:57:14.691Z,92.05
2022-09-24T01:59:48.432Z,91.91
2022-09-24T02:02:27.016Z,91.95
2022-09-24T02:05:12.515Z,91.93
2022-09-24T02:07:53.034Z,91.97
2022-09-24T02:10:21.660Z,92.01
2022-09-24T02:12:55.602Z,92.04
2022-09-24T02:15:32.213Z,92.00
2022-09-24T02:18:07.247Z,91.86
2022-09-24T02:20:36.829Z,91.89
2022-09-24T02:23:08.235Z,91.83
2022-09-24T02:25:55.500Z,91.86
2022-09-24T02:28:24.883Z,91.69
2022-09-24T02:31:10.084Z,91.72
2022-09-24T02:34:01.321Z,91.80
2022-09-24T02:36:30.259Z,91.94
2022-09-24T02:38:59.450Z,92.00
2022-09-24T02:41:28.130Z,91.96
2022-09-24T02:43:57.435Z,92.02
2022-09-24T02:46:26.525Z,92.14
2022-09-24T02:48:55.318Z,92.20
2022-09-24T02:51:24.198Z,92.13
2022-09-24T02:53:52.772Z,92.03
2022-09-24T02:56:21.498Z,92.03
2022-09-24T02:58:50.961Z,92.11
2022-09-24T03:01:20.412Z,92.01
2022-09-24T03:03:50.458Z,91.88
2022-09-24T03:06:19.041Z,91.88
2022-09-24T03:08:49.085Z,91.84
2022-09-24T03:11:18.970Z,91.78
2022-09-24T03:13:48.140Z,91.72
2022-09-24T03:16:17.528Z,91.61
2022-09-24T03:18:47.861Z,91.61
2022-09-24T03:21:19.379Z,91.64
2022-09-24T03:23:48.002Z,91.62
2022-09-24T03:26:17.721Z,91.59
2022-09-24T03:28:46.537Z,91.63
2022-09-24T03:31:15.209Z,91.62
2022-09-24T03:33:47.979Z,91.68
2022-09-24T03:36:20.545Z,91.66
2022-09-24T03:38:51.032Z,91.70
2022-09-24T03:41:21.956Z,91.43
2022-09-24T03:43:50.780Z,91.40
2022-09-24T03:46:19.858Z,91.49
2022-09-24T03:48:50.159Z,91.56
2022-09-24T03:51:19.600Z,91.45
2022-09-24T03:53:48.722Z,91.34
2022-09-24T03:56:17.436Z,91.36
2022-09-24T03:58:47.947Z,91.39
2022-09-24T04:01:21.391Z,91.35
2022-09-24T04:03:50.785Z,91.33
2022-09-24T04:06:24.849Z,91.20
2022-09-24T04:08:49.882Z,91.26
2022-09-24T04:11:21.383Z,91.34
2022-09-24T04:13:50.199Z,91.23
2022-09-24T04:16:20.327Z,91.19
2022-09-24T04:18:49.137Z,91.16
2022-09-24T04:21:19.584Z,91.13
2022-09-24T04:23:48.261Z,91.08
2022-09-24T04:26:17.396Z,91.10
2022-09-24T04:28:46.180Z,91.02
2022-09-24T04:31:15.644Z,91.01
2022-09-24T04:33:45.758Z,90.98
2022-09-24T04:36:14.982Z,91.04
2022-09-24T04:38:45.475Z,90.88
2022-09-24T04:41:16.038Z,90.87
2022-09-24T04:43:48.035Z,90.85
2022-09-24T04:46:18.545Z,90.79
2022-09-24T04:48:47.377Z,90.75
2022-09-24T04:51:19.163Z,90.69
2022-09-24T04:53:50.610Z,90.61
2022-09-24T04:56:20.372Z,90.63
2022-09-24T04:58:51.658Z,90.52
2022-09-24T05:01:21.319Z,90.42
2022-09-24T05:03:51.574Z,90.33
2022-09-24T05:06:20.716Z,90.22
2022-09-24T05:08:50.262Z,90.24
2022-09-24T05:11:20.249Z,90.31
2022-09-24T05:13:49.477Z,90.33
2022-09-24T05:16:18.774Z,90.21
2022-09-24T05:18:52.709Z,90.06
2022-09-24T05:21:23.467Z,90.14
2022-09-24T05:23:52.058Z,90.27
2022-09-24T05:26:39.634Z,90.20
2022-09-24T05:29:10.116Z,90.03
2022-09-24T05:31:38.723Z,90.11
2022-09-24T05:34:08.483Z,89.99
2022-09-24T05:36:38.069Z,89.92
2022-09-24T05:39:07.362Z,89.99
2022-09-24T05:41:36.593Z,89.85
2022-09-24T05:44:05.827Z,89.82
2022-09-24T05:46:35.858Z,89.72
2022-09-24T05:49:04.495Z,89.68
2022-09-24T05:51:33.222Z,89.57
2022-09-24T05:54:03.201Z,89.51
2022-09-24T05:56:31.899Z,89.37
2022-09-24T05:59:03.683Z,89.29
2022-09-24T06:01:32.566Z,89.06
2022-09-24T06:04:06.284Z,88.96
2022-09-24T06:06:32.803Z,88.87
2022-09-24T06:09:04.086Z,88.62
2022-09-24T06:11:40.056Z,88.57
2022-09-24T06:14:06.084Z,88.29
2022-09-24T06:16:35.685Z,87.99
2022-09-24T06:19:06.035Z,87.85
2022-09-24T06:21:35.871Z,87.19
2022-09-24T06:24:05.512Z,87.28
2022-09-24T06:26:34.721Z,87.18
2022-09-24T06:29:05.130Z,87.10
2022-09-24T06:31:35.618Z,87.20
2022-09-24T06:34:05.233Z,87.22
2022-09-24T06:36:34.532Z,87.11
2022-09-24T06:39:04.532Z,86.79
2022-09-24T06:41:33.693Z,86.65
2022-09-24T06:44:03.192Z,86.52
2022-09-24T06:46:32.195Z,86.41
2022-09-24T06:49:01.318Z,85.99
2022-09-24T06:51:30.564Z,85.78
2022-09-24T06:54:00.392Z,85.77
2022-09-24T06:56:30.720Z,85.24
2022-09-24T06:58:59.569Z,84.41
2022-09-24T07:01:29.090Z,84.20
2022-09-24T07:03:57.950Z,84.18
2022-09-24T07:06:29.342Z,83.83
2022-09-24T07:08:59.007Z,83.77
2022-09-24T07:11:29.126Z,83.42
2022-09-24T07:14:00.293Z,82.57
2022-09-24T07:16:30.197Z,82.07
2022-09-24T07:19:01.263Z,82.01
2022-09-24T07:21:39.117Z,81.92
2022-09-24T07:24:10.675Z,81.69
2022-09-24T07:26:39.967Z,81.83
2022-09-24T07:29:08.898Z,81.48
2022-09-24T07:31:39.214Z,81.24
2022-09-24T07:34:11.600Z,81.08
2022-09-24T07:36:42.195Z,80.02
2022-09-24T07:39:11.556Z,79.69
2022-09-24T07:41:42.365Z,79.58
2022-09-24T07:44:12.260Z,79.63
2022-09-24T07:46:41.776Z,79.53
2022-09-24T07:49:11.164Z,79.51
2022-09-24T07:51:39.972Z,79.36
2022-09-24T07:54:12.753Z,78.42
2022-09-24T07:56:42.952Z,77.39
2022-09-24T07:59:12.247Z,77.16
2022-09-24T08:01:42.195Z,77.15
2022-09-24T08:04:11.224Z,77.17
2022-09-24T08:06:44.982Z,76.72
2022-09-24T08:09:11.733Z,76.20
2022-09-24T08:11:41.971Z,75.58
2022-09-24T08:14:11.408Z,75.71
2022-09-24T08:16:41.719Z,75.23
2022-09-24T08:19:12.988Z,74.89
2022-09-24T08:21:42.327Z,74.91
2022-09-24T08:24:12.501Z,73.90
2022-09-24T08:26:43.607Z,73.40
2022-09-24T08:29:12.156Z,73.07
2022-09-24T08:31:42.444Z,72.36
2022-09-24T08:34:12.403Z,71.24
2022-09-24T08:36:43.067Z,69.66
2022-09-24T08:39:13.527Z,68.25
2022-09-24T08:41:59.611Z,67.34
2022-09-24T08:44:54.425Z,67.37
2022-09-24T08:47:42.351Z,67.26
2022-09-24T08:50:22.105Z,65.76
2022-09-24T08:53:17.403Z,65.90
2022-09-24T08:55:55.893Z,66.31
2022-09-24T08:58:44.100Z,66.05
2022-09-24T09:01:19.092Z,65.47
2022-09-24T09:04:06.224Z,65.08
2022-09-24T09:06:59.167Z,65.25
2022-09-24T09:09:37.048Z,65.67
2022-09-24T09:12:12.803Z,65.69
2022-09-24T09:15:09.660Z,65.57
2022-09-24T09:18:12.850Z,65.75
2022-09-24T09:20:47.795Z,65.45
2022-09-24T09:23:23.088Z,64.78
2022-09-24T09:25:57.568Z,64.15
2022-09-24T09:28:27.922Z,63.74
2022-09-24T09:31:39.997Z,63.08
2022-09-24T09:34:18.383Z,63.34
2022-09-24T09:37:04.862Z,63.13
2022-09-24T09:39:44.574Z,63.43
2022-09-24T09:42:35.722Z,63.82
2022-09-24T09:45:39.136Z,63.93
2022-09-24T09:48:12.172Z,64.17
2022-09-24T09:50:48.342Z,64.45
2022-09-24T09:53:28.502Z,64.84
2022-09-24T09:56:02.772Z,65.10
2022-09-24T09:58:32.948Z,65.02
2022-09-24T10:01:10.570Z,64.95
2022-09-24T10:03:54.646Z,64.86
2022-09-24T10:06:25.797Z,64.98
2022-09-24T10:08:56.750Z,64.27
2022-09-24T10:11:25.855Z,64.23
2022-09-24T10:14:12.675Z,64.43
2022-09-24T10:16:44.707Z,64.46
2022-09-24T10:19:20.565Z,64.51
2022-09-24T10:21:51.810Z,64.22
2022-09-24T10:24:23.294Z,64.46
2022-09-24T10:26:52.273Z,64.68
2022-09-24T10:29:47.578Z,64.72
2022-09-24T10:32:21.614Z,64.99
2022-09-24T10:35:06.519Z,64.72
2022-09-24T10:37:35.768Z,64.77
2022-09-24T10:40:15.030Z,64.63
2022-09-24T10:42:44.227Z,65.83
2022-09-24T10:45:14.633Z,67.03
2022-09-24T10:47:57.368Z,68.14
2022-09-24T10:50:45.594Z,68.95
2022-09-24T10:53:37.052Z,70.03
2022-09-24T10:56:23.369Z,69.25
2022-09-24T10:59:23.484Z,68.71
2022-09-24T11:02:22.225Z,68.68
2022-09-24T11:05:07.203Z,69.57
2022-09-24T11:07:45.575Z,70.14
2022-09-24T11:10:42.678Z,69.68
2022-09-24T11:13:35.403Z,69.24
2022-09-24T11:17:00.173Z,69.02
2022-09-24T11:20:07.503Z,68.17
2022-09-24T11:23:14.913Z,67.33
2022-09-24T11:26:01.195Z,66.82
2022-09-24T11:28:53.381Z,64.33
2022-09-24T11:32:04.247Z,62.97
2022-09-24T11:34:51.886Z,62.17
2022-09-24T11:38:02.957Z,62.09
2022-09-24T11:40:55.179Z,60.77
2022-09-24T11:44:02.933Z,60.82
2022-09-24T11:46:59.490Z,60.29
2022-09-24T11:49:59.658Z,59.72
2022-09-24T11:52:38.685Z,60.43
2022-09-24T11:55:33.317Z,60.89
2022-09-24T11:58:24.720Z,61.37
2022-09-24T12:01:00.877Z,61.58
2022-09-24T12:03:38.809Z,62.88
2022-09-24T12:06:15.423Z,64.38
2022-09-24T12:09:21.639Z,65.10
2022-09-24T12:11:57.084Z,65.62
2022-09-24T12:14:29.688Z,64.23
2022-09-24T12:17:05.490Z,63.35
2022-09-24T12:19:49.230Z,63.39
2022-09-24T12:22:18.449Z,65.48
2022-09-24T12:24:51.618Z,66.85
2022-09-24T12:27:35.978Z,67.02
2022-09-24T12:30:53.162Z,66.15
2022-09-24T12:33:57.710Z,66.55
2022-09-24T12:37:03.971Z,66.23
2022-09-24T12:39:45.644Z,66.56
2022-09-24T12:42:14.324Z,66.32
2022-09-24T12:44:48.029Z,66.58
2022-09-24T12:47:25.063Z,66.89
2022-09-24T12:50:00.302Z,67.75
2022-09-24T12:52:40.735Z,68.13
2022-09-24T12:55:25.319Z,67.56
2022-09-24T12:58:00.493Z,66.65
2022-09-24T13:00:42.380Z,66.83
2022-09-24T13:03:40.772Z,67.30
2022-09-24T13:06:34.323Z,67.19
2022-09-24T13:09:04.668Z,67.01
2022-09-24T13:11:36.963Z,67.35
2022-09-24T13:14:15.635Z,67.27
2022-09-24T13:16:49.183Z,67.38
2022-09-24T13:19:40.751Z,67.05
2022-09-24T13:22:30.035Z,66.92
2022-09-24T13:25:16.048Z,66.93
2022-09-24T13:27:48.344Z,66.78
2022-09-24T13:30:21.318Z,65.53
2022-09-24T13:33:01.167Z,63.92
2022-09-24T13:35:35.362Z,63.89
2022-09-24T13:38:28.866Z,63.59
2022-09-24T13:41:03.772Z,63.64
2022-09-24T13:44:01.393Z,64.37
2022-09-24T13:46:30.876Z,64.46
2022-09-24T13:49:10.841Z,64.66
2022-09-24T13:51:40.285Z,64.22
2022-09-24T13:54:26.250Z,63.93
2022-09-24T13:57:17.689Z,63.79
2022-09-24T13:59:46.629Z,63.85
2022-09-24T14:02:27.265Z,64.29
2022-09-24T14:04:58.212Z,64.30
2022-09-24T14:07:27.280Z,64.01
2022-09-24T14:10:13.964Z,63.88
2022-09-24T14:12:43.305Z,64.19
2022-09-24T14:15:16.987Z,64.46
2022-09-24T14:17:59.318Z,64.54
2022-09-24T14:20:32.291Z,63.46
2022-09-24T14:23:01.218Z,62.69
2022-09-24T14:25:31.222Z,62.33
2022-09-24T14:28:01.338Z,61.99
2022-09-24T14:30:30.367Z,62.28
2022-09-24T14:33:09.434Z,62.56
2022-09-24T14:35:38.773Z,62.37
2022-09-24T14:38:35.819Z,62.50
2022-09-24T14:41:08.594Z,62.11
2022-09-24T14:43:53.789Z,61.65
2022-09-24T14:46:27.425Z,61.94
2022-09-24T14:49:09.303Z,61.75
2022-09-24T14:51:38.879Z,62.03
2022-09-24T14:54:35.289Z,61.53
2022-09-24T14:57:21.609Z,61.25
2022-09-24T14:59:50.290Z,61.60
2022-09-24T15:02:36.859Z,62.87
2022-09-24T15:05:08.282Z,63.87
2022-09-24T15:07:37.863Z,65.12
2022-09-24T15:10:07.358Z,66.05
2022-09-24T15:12:37.589Z,66.60
2022-09-24T15:15:24.849Z,67.92
2022-09-24T15:17:55.151Z,69.66
2022-09-24T15:20:24.145Z,70.81
2022-09-24T15:22:53.109Z,71.46
2022-09-24T15:25:22.045Z,72.54
2022-09-24T15:27:53.286Z,73.15
2022-09-24T15:30:23.857Z,73.31
2022-09-24T15:32:53.744Z,73.02
2022-09-24T15:35:22.738Z,73.25
2022-09-24T15:37:51.927Z,74.05
2022-09-24T15:40:24.296Z,74.54
2022-09-24T15:42:54.117Z,74.54
2022-09-24T15:45:24.880Z,74.85
2022-09-24T15:47:56.227Z,74.91
2022-09-24T15:50:26.115Z,75.06
2022-09-24T15:53:00.278Z,75.27
2022-09-24T15:55:31.253Z,75.13
2022-09-24T15:58:02.168Z,74.61
2022-09-24T16:00:32.730Z,74.57
2022-09-24T16:03:02.212Z,74.40
2022-09-24T16:05:31.121Z,74.65
2022-09-24T16:08:02.929Z,74.72
2022-09-24T16:10:32.417Z,74.82
2022-09-24T16:13:04.765Z,74.94
2022-09-24T16:15:35.487Z,74.68
2022-09-24T16:18:11.776Z,74.68
2022-09-24T16:20:41.382Z,74.56
2022-09-24T16:23:15.397Z,74.42
2022-09-24T16:25:59.235Z,74.25
2022-09-24T16:28:30.185Z,73.69
2022-09-24T16:30:59.828Z,73.29
2022-09-24T16:33:28.689Z,73.43
2022-09-24T16:35:57.354Z,73.51
2022-09-24T16:38:26.532Z,73.38
2022-09-24T16:41:02.685Z,73.13
2022-09-24T16:43:31.995Z,72.99
2022-09-24T16:46:03.676Z,72.87
2022-09-24T16:48:35.315Z,72.99
2022-09-24T16:51:09.190Z,73.40
2022-09-24T16:53:38.174Z,73.25
2022-09-24T16:56:14.320Z,73.10
2022-09-24T16:58:44.088Z,73.03
2022-09-24T17:01:17.476Z,73.38
2022-09-24T17:03:58.378Z,73.78
2022-09-24T17:06:30.056Z,73.62
2022-09-24T17:09:18.925Z,73.61
2022-09-24T17:11:49.241Z,73.51
2022-09-24T17:14:19.100Z,73.57
2022-09-24T17:16:49.325Z,73.44
2022-09-24T17:19:18.780Z,73.57
2022-09-24T17:21:51.798Z,74.02
2022-09-24T17:24:22.246Z,74.05
2022-09-24T17:26:51.785Z,74.03
2022-09-24T17:29:22.115Z,74.12
2022-09-24T17:31:52.453Z,73.98
2022-09-24T17:34:21.848Z,73.95
2022-09-24T17:36:50.864Z,74.02
2022-09-24T17:39:20.532Z,74.03
2022-09-24T17:41:49.477Z,74.05
2022-09-24T17:44:19.634Z,74.12
2022-09-24T17:46:48.562Z,74.20
2022-09-24T17:49:19.752Z,74.38
2022-09-24T17:51:49.178Z,74.45
2022-09-24T17:54:22.752Z,74.47
2022-09-24T17:56:53.560Z,74.55
2022-09-24T17:59:26.644Z,74.64
2022-09-24T18:01:56.101Z,74.81
2022-09-24T18:04:27.831Z,74.88
2022-09-24T18:06:56.557Z,75.01
2022-09-24T18:09:27.150Z,75.10
2022-09-24T18:11:57.961Z,75.29
2022-09-24T18:14:27.863Z,75.42
2022-09-24T18:16:59.420Z,75.55
2022-09-24T18:19:29.645Z,75.68
2022-09-24T18:21:59.763Z,75.91
2022-09-24T18:24:28.791Z,75.85
2022-09-24T18:26:58.821Z,75.88
2022-09-24T18:29:27.916Z,76.03
2022-09-24T18:31:57.909Z,76.14
2022-09-24T18:34:26.894Z,76.26
2022-09-24T18:36:56.440Z,76.19
2022-09-24T18:39:26.239Z,76.11
2022-09-24T18:41:55.970Z,76.13
2022-09-24T18:44:26.453Z,76.44
2022-09-24T18:46:56.378Z,76.37
2022-09-24T18:49:26.605Z,76.26
2022-09-24T18:51:55.823Z,76.31
2022-09-24T18:54:25.143Z,76.27
2022-09-24T18:56:54.851Z,76.27
2022-09-24T18:59:24.149Z,76.35
2022-09-24T19:01:52.924Z,76.41
2022-09-24T19:04:28.033Z,76.21
2022-09-24T19:07:02.546Z,76.16
2022-09-24T19:09:32.032Z,76.03
2022-09-24T19:12:01.864Z,75.98
2022-09-24T19:14:32.212Z,75.97
2022-09-24T19:17:05.115Z,76.01
2022-09-24T19:19:36.435Z,76.03
2022-09-24T19:22:06.036Z,75.94
2022-09-24T19:24:35.291Z,75.79
2022-09-24T19:27:05.278Z,75.52
2022-09-24T19:29:35.687Z,75.35
2022-09-24T19:32:05.852Z,75.32
2022-09-24T19:34:35.369Z,75.18
2022-09-24T19:37:05.209Z,75.17
2022-09-24T19:39:34.743Z,75.28
2022-09-24T19:42:05.249Z,75.13
2022-09-24T19:44:36.447Z,75.12
2022-09-24T19:47:08.007Z,74.98
2022-09-24T19:49:38.063Z,74.88
2022-09-24T19:52:07.755Z,74.67
2022-09-24T19:54:37.219Z,74.56
2022-09-24T19:57:07.323Z,74.52
2022-09-24T19:59:38.137Z,74.58
2022-09-24T20:02:10.991Z,74.52
2022-09-24T20:04:42.104Z,74.64
2022-09-24T20:07:17.997Z,74.84
2022-09-24T20:09:48.992Z,74.97
2022-09-24T20:12:19.023Z,75.14
2022-09-24T20:14:47.713Z,75.26
2022-09-24T20:17:17.903Z,75.27
2022-09-24T20:19:51.898Z,75.40
2022-09-24T20:22:22.592Z,75.58
2022-09-24T20:24:51.582Z,75.67
2022-09-24T20:27:40.323Z,75.85
2022-09-24T20:30:10.568Z,75.91
2022-09-24T20:32:43.257Z,76.11
2022-09-24T20:35:12.786Z,76.15
2022-09-24T20:37:46.163Z,76.33
2022-09-24T20:40:16.719Z,76.46
2022-09-24T20:42:46.304Z,76.60
2022-09-24T20:45:17.061Z,76.50
2022-09-24T20:47:49.597Z,76.42
2022-09-24T20:50:19.922Z,76.49
2022-09-24T20:52:49.086Z,76.52
2022-09-24T20:55:18.037Z,76.59
2022-09-24T20:57:48.928Z,76.61
2022-09-24T21:00:18.215Z,76.67
2022-09-24T21:02:47.149Z,76.66
2022-09-24T21:05:16.848Z,76.66
2022-09-24T21:07:46.561Z,76.72
2022-09-24T21:10:17.504Z,76.84
2022-09-24T21:12:50.962Z,76.83
2022-09-24T21:15:19.135Z,76.88
2022-09-24T21:18:11.572Z,76.96
2022-09-24T21:20:21.063Z,76.97
2022-09-24T21:22:50.312Z,77.02
2022-09-24T21:25:49.402Z,77.02
2022-09-24T21:27:52.976Z,77.03
2022-09-24T21:30:22.650Z,77.08
2022-09-24T21:32:51.806Z,77.14
2022-09-24T21:35:21.288Z,77.15
2022-09-24T21:37:51.870Z,77.23
2022-09-24T21:40:21.757Z,77.23
2022-09-24T21:42:51.823Z,77.24
2022-09-24T21:45:20.853Z,77.24
2022-09-24T21:47:52.305Z,77.23
2022-09-24T21:50:22.358Z,77.21
2022-09-24T21:52:53.783Z,77.17
2022-09-24T21:55:23.482Z,77.31
2022-09-24T21:57:52.941Z,77.46
2022-09-24T22:00:24.008Z,77.56
2022-09-24T22:02:53.914Z,77.60
2022-09-24T22:05:22.817Z,77.66
2022-09-24T22:07:53.946Z,77.78
2022-09-24T22:10:23.900Z,77.97
2022-09-24T22:12:53.271Z,78.21
2022-09-24T22:15:22.686Z,78.32
2022-09-24T22:17:51.747Z,78.29
2022-09-24T22:20:21.032Z,78.33
2022-09-24T22:22:50.136Z,78.42
2022-09-24T22:25:18.940Z,78.52
2022-09-24T22:27:47.747Z,78.68
2022-09-24T22:30:16.656Z,78.84
2022-09-24T22:32:47.486Z,78.86
2022-09-24T22:35:38.345Z,78.90
2022-09-24T22:38:06.653Z,78.98
2022-09-24T22:40:35.954Z,79.02
2022-09-24T22:43:05.296Z,79.10
2022-09-24T22:45:34.221Z,79.17
2022-09-24T22:48:05.179Z,79.30
2022-09-24T22:50:34.222Z,79.40
2022-09-24T22:53:03.539Z,79.41
2022-09-24T22:55:33.106Z,79.54
2022-09-24T22:58:02.295Z,79.61
2022-09-24T23:00:31.042Z,79.61
2022-09-24T23:03:00.346Z,79.68
2022-09-24T23:05:31.335Z,79.85
2022-09-24T23:08:00.205Z,79.93
2022-09-24T23:10:29.864Z,80.02
2022-09-24T23:12:58.828Z,80.08
2022-09-24T23:15:28.419Z,80.13
2022-09-24T23:17:57.964Z,80.20
2022-09-24T23:20:27.283Z,80.23
2022-09-24T23:22:56.321Z,80.29
2022-09-24T23:25:25.894Z,80.33
2022-09-24T23:27:55.546Z,80.18
2022-09-24T23:30:26.074Z,80.15
2022-09-24T23:32:56.521Z,80.15
2022-09-24T23:35:26.239Z,80.02
2022-09-24T23:37:55.120Z,79.96
2022-09-24T23:40:24.335Z,79.97
2022-09-24T23:42:53.391Z,80.01
2022-09-24T23:45:22.034Z,79.95
2022-09-24T23:47:52.535Z,79.88
2022-09-24T23:50:21.454Z,79.83
2022-09-24T23:52:50.655Z,79.81
2022-09-24T23:55:21.620Z,79.77
2022-09-24T23:57:50.733Z,79.72
